sensor_id;sensor_type;location;lat;lon;timestamp;P1;durP1;ratioP1;P2;durP2;ratioP2
61673;SDS011;47573;43.832;5.974;2023-04-19T00:04:36;492.70;;;375.60;;
61673;SDS011;47573;43.832;5.974;2023-04-19T00:11:18;488.93;;;371.20;;
61673;SDS011;47573;43.832;5.974;2023-04-19T00:17:58;483.23;;;358.97;;
61673;SDS011;47573;43.832;5.974;2023-04-19T00:24:39;471.40;;;349.37;;
61673;SDS011;47573;43.832;5.974;2023-04-19T00:31:21;467.13;;;345.90;;
61673;SDS011;47573;43.832;5.974;2023-04-19T00:38:01;457.85;;;340.08;;
61673;SDS011;47573;43.832;5.974;2023-04-19T00:44:42;439.93;;;332.93;;
61673;SDS011;47573;43.832;5.974;2023-04-19T00:51:24;441.92;;;327.80;;
61673;SDS011;47573;43.832;5.974;2023-04-19T00:58:06;432.83;;;323.17;;
61673;SDS011;47573;43.832;5.974;2023-04-19T01:04:47;429.93;;;316.83;;
61673;SDS011;47573;43.832;5.974;2023-04-19T01:11:29;428.70;;;314.83;;
61673;SDS011;47573;43.832;5.974;2023-04-19T01:18:10;410.58;;;309.05;;
61673;SDS011;47573;43.832;5.974;2023-04-19T01:24:52;410.40;;;304.70;;
61673;SDS011;47573;43.832;5.974;2023-04-19T01:31:32;399.75;;;298.98;;
61673;SDS011;47573;43.832;5.974;2023-04-19T01:38:13;397.63;;;296.33;;
61673;SDS011;47573;43.832;5.974;2023-04-19T01:44:55;390.48;;;289.20;;
61673;SDS011;47573;43.832;5.974;2023-04-19T01:51:36;384.63;;;287.15;;
61673;SDS011;47573;43.832;5.974;2023-04-19T01:58:17;374.10;;;280.58;;
61673;SDS011;47573;43.832;5.974;2023-04-19T02:04:59;358.63;;;269.53;;
61673;SDS011;47573;43.832;5.974;2023-04-19T02:11:40;347.73;;;262.75;;
61673;SDS011;47573;43.832;5.974;2023-04-19T02:18:20;341.60;;;254.35;;
61673;SDS011;47573;43.832;5.974;2023-04-19T02:25:02;330.63;;;245.80;;
61673;SDS011;47573;43.832;5.974;2023-04-19T02:31:43;317.43;;;235.90;;
61673;SDS011;47573;43.832;5.974;2023-04-19T02:38:23;313.90;;;231.80;;
61673;SDS011;47573;43.832;5.974;2023-04-19T02:45:06;314.10;;;226.17;;
61673;SDS011;47573;43.832;5.974;2023-04-19T02:51:49;294.20;;;215.55;;
61673;SDS011;47573;43.832;5.974;2023-04-19T02:58:30;282.60;;;206.13;;
61673;SDS011;47573;43.832;5.974;2023-04-19T03:05:12;276.57;;;201.13;;
61673;SDS011;47573;43.832;5.974;2023-04-19T03:11:52;267.33;;;190.27;;
61673;SDS011;47573;43.832;5.974;2023-04-19T03:18:33;254.20;;;176.30;;
61673;SDS011;47573;43.832;5.974;2023-04-19T03:25:15;245.85;;;173.57;;
61673;SDS011;47573;43.832;5.974;2023-04-19T03:31:55;241.07;;;164.35;;
61673;SDS011;47573;43.832;5.974;2023-04-19T03:38:36;234.10;;;162.32;;
61673;SDS011;47573;43.832;5.974;2023-04-19T03:45:18;223.87;;;152.83;;
61673;SDS011;47573;43.832;5.974;2023-04-19T03:51:58;217.18;;;148.75;;
61673;SDS011;47573;43.832;5.974;2023-04-19T03:58:39;205.37;;;142.50;;
61673;SDS011;47573;43.832;5.974;2023-04-19T04:05:20;201.50;;;140.73;;
61673;SDS011;47573;43.832;5.974;2023-04-19T04:12:01;207.52;;;141.77;;
61673;SDS011;47573;43.832;5.974;2023-04-19T04:18:42;207.02;;;139.65;;
61673;SDS011;47573;43.832;5.974;2023-04-19T04:25:24;195.82;;;133.55;;
61673;SDS011;47573;43.832;5.974;2023-04-19T04:32:05;189.70;;;129.15;;
61673;SDS011;47573;43.832;5.974;2023-04-19T04:38:46;187.93;;;129.20;;
61673;SDS011;47573;43.832;5.974;2023-04-19T04:45:28;179.57;;;123.83;;
61673;SDS011;47573;43.832;5.974;2023-04-19T04:52:08;176.80;;;122.15;;
61673;SDS011;47573;43.832;5.974;2023-04-19T04:58:49;165.17;;;115.60;;
61673;SDS011;47573;43.832;5.974;2023-04-19T05:05:31;162.70;;;112.80;;
61673;SDS011;47573;43.832;5.974;2023-04-19T05:12:11;151.88;;;106.05;;
61673;SDS011;47573;43.832;5.974;2023-04-19T05:18:52;147.45;;;100.68;;
61673;SDS011;47573;43.832;5.974;2023-04-19T05:25:34;133.82;;;94.90;;
61673;SDS011;47573;43.832;5.974;2023-04-19T05:32:15;135.30;;;94.25;;
61673;SDS011;47573;43.832;5.974;2023-04-19T05:38:55;133.95;;;92.68;;
61673;SDS011;47573;43.832;5.974;2023-04-19T05:45:37;130.82;;;91.85;;
61673;SDS011;47573;43.832;5.974;2023-04-19T05:52:18;133.82;;;89.78;;
61673;SDS011;47573;43.832;5.974;2023-04-19T05:58:58;129.67;;;87.30;;
61673;SDS011;47573;43.832;5.974;2023-04-19T06:05:40;124.83;;;84.40;;
61673;SDS011;47573;43.832;5.974;2023-04-19T06:12:21;119.03;;;83.22;;
61673;SDS011;47573;43.832;5.974;2023-04-19T06:19:01;87.68;;;61.13;;
61673;SDS011;47573;43.832;5.974;2023-04-19T06:25:43;232.03;;;96.20;;
61673;SDS011;47573;43.832;5.974;2023-04-19T06:32:24;490.00;;;161.52;;
61673;SDS011;47573;43.832;5.974;2023-04-19T06:39:04;61.83;;;38.23;;
61673;SDS011;47573;43.832;5.974;2023-04-19T06:45:46;88.38;;;31.27;;
61673;SDS011;47573;43.832;5.974;2023-04-19T06:52:27;27.80;;;12.02;;
61673;SDS011;47573;43.832;5.974;2023-04-19T06:59:08;107.15;;;29.10;;
61673;SDS011;47573;43.832;5.974;2023-04-19T07:05:49;7.93;;;6.33;;
61673;SDS011;47573;43.832;5.974;2023-04-19T07:12:30;21.75;;;9.25;;
61673;SDS011;47573;43.832;5.974;2023-04-19T07:19:11;9.45;;;5.47;;
61673;SDS011;47573;43.832;5.974;2023-04-19T07:25:53;25.60;;;9.65;;
61673;SDS011;47573;43.832;5.974;2023-04-19T07:32:33;8.60;;;6.15;;
61673;SDS011;47573;43.832;5.974;2023-04-19T07:39:14;55.30;;;14.77;;
61673;SDS011;47573;43.832;5.974;2023-04-19T07:45:56;13.07;;;6.33;;
61673;SDS011;47573;43.832;5.974;2023-04-19T07:52:36;8.45;;;5.25;;
61673;SDS011;47573;43.832;5.974;2023-04-19T07:59:16;19.13;;;7.23;;
61673;SDS011;47573;43.832;5.974;2023-04-19T08:05:59;14.82;;;6.18;;
61673;SDS011;47573;43.832;5.974;2023-04-19T08:12:40;10.57;;;5.23;;
61673;SDS011;47573;43.832;5.974;2023-04-19T08:19:20;20.73;;;9.35;;
61673;SDS011;47573;43.832;5.974;2023-04-19T08:26:02;11.75;;;6.88;;
61673;SDS011;47573;43.832;5.974;2023-04-19T08:32:43;10.90;;;6.80;;
61673;SDS011;47573;43.832;5.974;2023-04-19T08:39:23;7.20;;;5.40;;
61673;SDS011;47573;43.832;5.974;2023-04-19T08:46:05;8.93;;;5.17;;
61673;SDS011;47573;43.832;5.974;2023-04-19T08:52:47;6.00;;;5.00;;
61673;SDS011;47573;43.832;5.974;2023-04-19T08:59:28;12.20;;;6.63;;
61673;SDS011;47573;43.832;5.974;2023-04-19T09:06:09;7.07;;;5.10;;
61673;SDS011;47573;43.832;5.974;2023-04-19T09:13:00;6.65;;;5.30;;
61673;SDS011;47573;43.832;5.974;2023-04-19T09:19:44;6.00;;;5.05;;
61673;SDS011;47573;43.832;5.974;2023-04-19T09:26:26;7.38;;;5.25;;
61673;SDS011;47573;43.832;5.974;2023-04-19T09:33:07;5.60;;;4.90;;
61673;SDS011;47573;43.832;5.974;2023-04-19T09:39:47;6.07;;;4.90;;
61673;SDS011;47573;43.832;5.974;2023-04-19T09:46:30;6.47;;;4.90;;
61673;SDS011;47573;43.832;5.974;2023-04-19T09:53:12;5.70;;;4.82;;
61673;SDS011;47573;43.832;5.974;2023-04-19T09:59:53;6.50;;;5.10;;
61673;SDS011;47573;43.832;5.974;2023-04-19T10:06:35;5.82;;;4.57;;
61673;SDS011;47573;43.832;5.974;2023-04-19T10:13:16;6.00;;;4.87;;
61673;SDS011;47573;43.832;5.974;2023-04-19T10:20:00;5.72;;;5.07;;
61673;SDS011;47573;43.832;5.974;2023-04-19T10:33:51;5.82;;;5.13;;
61673;SDS011;47573;43.832;5.974;2023-04-19T10:47:43;6.35;;;5.28;;
61673;SDS011;47573;43.832;5.974;2023-04-19T10:54:27;8.00;;;5.30;;
61673;SDS011;47573;43.832;5.974;2023-04-19T11:08:14;5.72;;;5.03;;
61673;SDS011;47573;43.832;5.974;2023-04-19T11:15:02;6.38;;;5.13;;
61673;SDS011;47573;43.832;5.974;2023-04-19T11:21:44;5.90;;;4.90;;
61673;SDS011;47573;43.832;5.974;2023-04-19T11:28:27;5.95;;;4.90;;
61673;SDS011;47573;43.832;5.974;2023-04-19T11:35:08;6.05;;;5.00;;
61673;SDS011;47573;43.832;5.974;2023-04-19T11:41:49;5.88;;;5.10;;
61673;SDS011;47573;43.832;5.974;2023-04-19T11:48:33;5.80;;;4.93;;
61673;SDS011;47573;43.832;5.974;2023-04-19T11:55:17;6.40;;;5.28;;
61673;SDS011;47573;43.832;5.974;2023-04-19T12:02:08;5.95;;;5.05;;
61673;SDS011;47573;43.832;5.974;2023-04-19T12:08:52;7.78;;;5.07;;
61673;SDS011;47573;43.832;5.974;2023-04-19T12:15:40;15.65;;;12.27;;
61673;SDS011;47573;43.832;5.974;2023-04-19T12:22:20;23.77;;;17.02;;
61673;SDS011;47573;43.832;5.974;2023-04-19T12:29:02;49.10;;;34.47;;
61673;SDS011;47573;43.832;5.974;2023-04-19T12:35:44;43.17;;;30.45;;
61673;SDS011;47573;43.832;5.974;2023-04-19T12:42:25;37.07;;;27.60;;
61673;SDS011;47573;43.832;5.974;2023-04-19T12:49:07;36.30;;;26.10;;
61673;SDS011;47573;43.832;5.974;2023-04-19T12:55:47;30.33;;;21.92;;
61673;SDS011;47573;43.832;5.974;2023-04-19T13:02:28;32.47;;;23.03;;
61673;SDS011;47573;43.832;5.974;2023-04-19T13:09:10;26.77;;;20.57;;
61673;SDS011;47573;43.832;5.974;2023-04-19T13:15:51;25.75;;;19.60;;
61673;SDS011;47573;43.832;5.974;2023-04-19T13:22:31;22.77;;;16.95;;
61673;SDS011;47573;43.832;5.974;2023-04-19T13:29:13;21.05;;;16.33;;
61673;SDS011;47573;43.832;5.974;2023-04-19T13:35:53;20.50;;;14.98;;
61673;SDS011;47573;43.832;5.974;2023-04-19T13:42:34;17.90;;;13.48;;
61673;SDS011;47573;43.832;5.974;2023-04-19T13:49:16;15.10;;;11.63;;
61673;SDS011;47573;43.832;5.974;2023-04-19T13:55:57;15.40;;;11.73;;
61673;SDS011;47573;43.832;5.974;2023-04-19T14:02:37;11.25;;;9.18;;
61673;SDS011;47573;43.832;5.974;2023-04-19T14:09:20;11.55;;;9.20;;
61673;SDS011;47573;43.832;5.974;2023-04-19T14:16:00;14.27;;;7.93;;
61673;SDS011;47573;43.832;5.974;2023-04-19T14:22:41;8.00;;;6.23;;
61673;SDS011;47573;43.832;5.974;2023-04-19T14:29:23;6.72;;;5.70;;
61673;SDS011;47573;43.832;5.974;2023-04-19T14:36:03;7.07;;;5.53;;
61673;SDS011;47573;43.832;5.974;2023-04-19T14:42:44;7.47;;;5.95;;
61673;SDS011;47573;43.832;5.974;2023-04-19T14:49:26;8.37;;;6.80;;
61673;SDS011;47573;43.832;5.974;2023-04-19T14:56:07;9.38;;;7.38;;
61673;SDS011;47573;43.832;5.974;2023-04-19T15:02:47;88.07;;;56.67;;
61673;SDS011;47573;43.832;5.974;2023-04-19T15:09:29;87.50;;;57.30;;
61673;SDS011;47573;43.832;5.974;2023-04-19T15:16:10;136.98;;;90.80;;
61673;SDS011;47573;43.832;5.974;2023-04-19T15:22:50;86.93;;;57.30;;
61673;SDS011;47573;43.832;5.974;2023-04-19T15:29:33;101.87;;;66.87;;
61673;SDS011;47573;43.832;5.974;2023-04-19T15:42:54;122.20;;;82.22;;
61673;SDS011;47573;43.832;5.974;2023-04-19T15:49:36;156.82;;;109.15;;
61673;SDS011;47573;43.832;5.974;2023-04-19T15:56:16;177.70;;;120.75;;
61673;SDS011;47573;43.832;5.974;2023-04-19T16:02:57;123.00;;;78.87;;
61673;SDS011;47573;43.832;5.974;2023-04-19T16:09:39;217.57;;;147.05;;
61673;SDS011;47573;43.832;5.974;2023-04-19T16:16:19;248.57;;;171.57;;
61673;SDS011;47573;43.832;5.974;2023-04-19T16:23:00;234.73;;;154.77;;
61673;SDS011;47573;43.832;5.974;2023-04-19T16:29:42;219.90;;;134.47;;
61673;SDS011;47573;43.832;5.974;2023-04-19T16:36:22;208.95;;;119.25;;
61673;SDS011;47573;43.832;5.974;2023-04-19T16:43:03;228.17;;;126.17;;
61673;SDS011;47573;43.832;5.974;2023-04-19T16:49:45;232.73;;;137.85;;
61673;SDS011;47573;43.832;5.974;2023-04-19T16:56:25;246.60;;;155.93;;
61673;SDS011;47573;43.832;5.974;2023-04-19T17:03:05;234.87;;;141.67;;
61673;SDS011;47573;43.832;5.974;2023-04-19T17:09:47;232.53;;;139.60;;
61673;SDS011;47573;43.832;5.974;2023-04-19T17:16:28;252.68;;;164.50;;
61673;SDS011;47573;43.832;5.974;2023-04-19T17:23:08;250.37;;;165.33;;
61673;SDS011;47573;43.832;5.974;2023-04-19T17:29:50;304.67;;;204.80;;
61673;SDS011;47573;43.832;5.974;2023-04-19T17:36:31;279.30;;;191.43;;
61673;SDS011;47573;43.832;5.974;2023-04-19T17:43:11;295.57;;;199.03;;
61673;SDS011;47573;43.832;5.974;2023-04-19T17:50:02;345.73;;;243.03;;
61673;SDS011;47573;43.832;5.974;2023-04-19T17:56:44;363.65;;;254.02;;
61673;SDS011;47573;43.832;5.974;2023-04-19T18:03:25;357.50;;;256.08;;
61673;SDS011;47573;43.832;5.974;2023-04-19T18:10:07;394.30;;;280.33;;
61673;SDS011;47573;43.832;5.974;2023-04-19T18:16:48;418.20;;;299.98;;
61673;SDS011;47573;43.832;5.974;2023-04-19T18:23:29;413.63;;;293.38;;
61673;SDS011;47573;43.832;5.974;2023-04-19T18:30:11;418.73;;;302.33;;
61673;SDS011;47573;43.832;5.974;2023-04-19T18:36:57;467.77;;;322.73;;
61673;SDS011;47573;43.832;5.974;2023-04-19T18:43:38;330.05;;;229.10;;
61673;SDS011;47573;43.832;5.974;2023-04-19T18:50:20;375.73;;;268.70;;
61673;SDS011;47573;43.832;5.974;2023-04-19T18:57:01;405.60;;;285.20;;
61673;SDS011;47573;43.832;5.974;2023-04-19T19:03:41;447.67;;;321.87;;
61673;SDS011;47573;43.832;5.974;2023-04-19T19:10:23;452.73;;;326.70;;
61673;SDS011;47573;43.832;5.974;2023-04-19T19:17:04;454.85;;;328.05;;
61673;SDS011;47573;43.832;5.974;2023-04-19T19:23:44;493.35;;;364.48;;
61673;SDS011;47573;43.832;5.974;2023-04-19T19:30:26;470.97;;;339.17;;
61673;SDS011;47573;43.832;5.974;2023-04-19T19:37:07;482.17;;;352.88;;
61673;SDS011;47573;43.832;5.974;2023-04-19T19:43:47;501.27;;;367.83;;
61673;SDS011;47573;43.832;5.974;2023-04-19T19:50:29;500.73;;;369.37;;
61673;SDS011;47573;43.832;5.974;2023-04-19T19:57:09;489.92;;;354.63;;
61673;SDS011;47573;43.832;5.974;2023-04-19T20:03:50;484.07;;;346.90;;
61673;SDS011;47573;43.832;5.974;2023-04-19T20:10:34;471.05;;;334.45;;
61673;SDS011;47573;43.832;5.974;2023-04-19T20:17:15;472.27;;;336.67;;
61673;SDS011;47573;43.832;5.974;2023-04-19T20:23:55;470.70;;;332.23;;
61673;SDS011;47573;43.832;5.974;2023-04-19T20:30:38;477.10;;;337.73;;
61673;SDS011;47573;43.832;5.974;2023-04-19T20:37:18;488.30;;;352.37;;
61673;SDS011;47573;43.832;5.974;2023-04-19T20:43:59;495.50;;;362.38;;
61673;SDS011;47573;43.832;5.974;2023-04-19T20:50:41;514.65;;;375.13;;
61673;SDS011;47573;43.832;5.974;2023-04-19T20:57:21;514.10;;;378.15;;
61673;SDS011;47573;43.832;5.974;2023-04-19T21:04:02;512.20;;;380.30;;
61673;SDS011;47573;43.832;5.974;2023-04-19T21:10:44;506.25;;;372.65;;
61673;SDS011;47573;43.832;5.974;2023-04-19T21:17:24;506.98;;;369.98;;
61673;SDS011;47573;43.832;5.974;2023-04-19T21:24:05;522.63;;;390.80;;
61673;SDS011;47573;43.832;5.974;2023-04-19T21:30:48;522.15;;;388.55;;
61673;SDS011;47573;43.832;5.974;2023-04-19T21:37:28;527.47;;;381.90;;
61673;SDS011;47573;43.832;5.974;2023-04-19T21:44:09;507.80;;;371.33;;
61673;SDS011;47573;43.832;5.974;2023-04-19T21:50:51;504.67;;;366.57;;
61673;SDS011;47573;43.832;5.974;2023-04-19T21:57:32;508.05;;;367.08;;
61673;SDS011;47573;43.832;5.974;2023-04-19T22:04:12;503.37;;;358.67;;
61673;SDS011;47573;43.832;5.974;2023-04-19T22:10:55;497.57;;;356.53;;
61673;SDS011;47573;43.832;5.974;2023-04-19T22:17:36;493.55;;;348.98;;
61673;SDS011;47573;43.832;5.974;2023-04-19T22:24:17;491.23;;;345.33;;
61673;SDS011;47573;43.832;5.974;2023-04-19T22:30:59;485.13;;;339.55;;
61673;SDS011;47573;43.832;5.974;2023-04-19T22:37:40;468.67;;;329.57;;
61673;SDS011;47573;43.832;5.974;2023-04-19T22:44:21;463.70;;;323.48;;
61673;SDS011;47573;43.832;5.974;2023-04-19T22:51:03;470.13;;;322.50;;
61673;SDS011;47573;43.832;5.974;2023-04-19T22:57:43;470.40;;;329.67;;
61673;SDS011;47573;43.832;5.974;2023-04-19T23:04:23;454.47;;;319.73;;
61673;SDS011;47573;43.832;5.974;2023-04-19T23:11:06;449.10;;;315.97;;
61673;SDS011;47573;43.832;5.974;2023-04-19T23:17:46;453.83;;;313.38;;
61673;SDS011;47573;43.832;5.974;2023-04-19T23:24:26;447.58;;;312.25;;
61673;SDS011;47573;43.832;5.974;2023-04-19T23:31:09;445.70;;;309.47;;
61673;SDS011;47573;43.832;5.974;2023-04-19T23:37:49;432.67;;;303.27;;
61673;SDS011;47573;43.832;5.974;2023-04-19T23:44:29;431.73;;;301.83;;
61673;SDS011;47573;43.832;5.974;2023-04-19T23:51:11;429.27;;;295.53;;
61673;SDS011;47573;43.832;5.974;2023-04-19T23:57:52;422.95;;;294.90;;
